createdAt,value
2018-06-16T00:00:13.882Z,18.00
2018-06-16T00:02:42.988Z,18.00
2018-06-16T00:05:11.779Z,18.10
2018-06-16T00:07:40.369Z,18.10
2018-06-16T00:10:08.915Z,18.10
2018-06-16T00:12:37.724Z,18.10
2018-06-16T00:15:06.162Z,18.10
2018-06-16T00:17:35.205Z,18.10
2018-06-16T00:20:03.996Z,18.10
2018-06-16T00:22:32.554Z,18.10
2018-06-16T00:27:30.216Z,18.10
2018-06-16T00:29:58.732Z,18.00
2018-06-16T00:32:27.495Z,18.00
2018-06-16T00:34:55.963Z,17.90
2018-06-16T00:37:24.824Z,17.80
2018-06-16T00:39:53.677Z,17.70
2018-06-16T00:42:22.161Z,17.60
2018-06-16T00:44:50.626Z,17.60
2018-06-16T00:47:20.181Z,17.60
2018-06-16T00:49:49.021Z,17.60
2018-06-16T00:52:18.075Z,17.60
2018-06-16T00:54:47.364Z,17.60
2018-06-16T00:57:24.766Z,17.50
2018-06-16T00:59:53.498Z,17.40
2018-06-16T01:02:22.851Z,17.40
2018-06-16T01:04:52.385Z,17.40
2018-06-16T01:07:21.188Z,17.30
2018-06-16T01:09:50.455Z,17.30
2018-06-16T01:12:20.129Z,17.20
2018-06-16T01:14:48.716Z,17.20
2018-06-16T01:17:17.275Z,17.20
2018-06-16T01:19:45.798Z,17.20
2018-06-16T01:22:14.412Z,17.20
2018-06-16T01:24:42.930Z,17.20
2018-06-16T01:27:11.673Z,17.20
2018-06-16T01:29:40.014Z,17.10
2018-06-16T01:32:09.066Z,17.10
2018-06-16T01:34:38.577Z,17.20
2018-06-16T01:37:07.144Z,17.20
2018-06-16T01:42:04.996Z,17.20
2018-06-16T01:44:34.506Z,17.00
2018-06-16T01:47:03.005Z,17.00
2018-06-16T01:49:31.981Z,17.00
2018-06-16T01:52:00.750Z,17.00
2018-06-16T01:54:29.216Z,17.00
2018-06-16T01:56:57.651Z,16.90
2018-06-16T01:59:26.287Z,16.90
2018-06-16T02:01:54.993Z,16.80
2018-06-16T02:04:23.471Z,16.80
2018-06-16T02:06:53.871Z,16.70
2018-06-16T02:09:22.992Z,16.60
2018-06-16T02:11:52.615Z,16.50
2018-06-16T02:14:21.457Z,16.40
2018-06-16T02:16:49.908Z,16.40
2018-06-16T02:19:18.456Z,16.30
2018-06-16T02:21:47.120Z,16.30
2018-06-16T02:24:15.688Z,16.30
2018-06-16T02:26:47.000Z,16.20
2018-06-16T02:29:15.710Z,16.20
2018-06-16T02:31:45.221Z,16.20
2018-06-16T02:34:13.908Z,16.10
2018-06-16T02:36:43.965Z,16.10
2018-06-16T02:39:12.762Z,16.10
2018-06-16T02:41:41.726Z,16.20
2018-06-16T02:44:11.495Z,16.10
2018-06-16T02:46:41.331Z,16.10
2018-06-16T02:49:09.805Z,16.10
2018-06-16T02:51:38.522Z,16.10
2018-06-16T02:54:07.072Z,16.20
2018-06-16T02:56:35.749Z,16.20
2018-06-16T02:59:04.253Z,16.30
2018-06-16T03:01:32.674Z,16.30
2018-06-16T03:04:03.733Z,16.30
2018-06-16T03:06:33.333Z,16.40
2018-06-16T03:09:02.725Z,16.40
2018-06-16T03:11:32.044Z,16.40
2018-06-16T03:14:01.980Z,16.40
2018-06-16T03:16:30.685Z,16.40
2018-06-16T03:19:02.466Z,16.40
2018-06-16T03:21:31.418Z,16.40
2018-06-16T03:24:01.638Z,16.40
2018-06-16T03:26:30.837Z,16.30
2018-06-16T03:28:59.987Z,16.30
2018-06-16T03:31:32.240Z,16.40
2018-06-16T03:34:01.366Z,16.40
2018-06-16T03:36:31.808Z,16.40
2018-06-16T03:39:01.971Z,16.40
2018-06-16T03:41:30.857Z,16.40
2018-06-16T03:44:02.374Z,16.50
2018-06-16T03:46:33.093Z,16.50
2018-06-16T03:49:02.273Z,16.50
2018-06-16T03:51:31.481Z,16.50
2018-06-16T03:54:00.529Z,16.50
2018-06-16T03:56:29.427Z,16.50
2018-06-16T03:58:58.658Z,16.50
2018-06-16T04:01:28.069Z,16.50
2018-06-16T04:03:56.495Z,16.60
2018-06-16T04:06:25.693Z,16.60
2018-06-16T04:08:56.743Z,16.60
2018-06-16T04:11:28.714Z,16.70
2018-06-16T04:14:01.240Z,16.70
2018-06-16T04:16:30.490Z,16.80
2018-06-16T04:18:59.576Z,16.90
2018-06-16T04:21:31.755Z,16.90
2018-06-16T04:24:00.692Z,17.00
2018-06-16T04:26:29.823Z,17.10
2018-06-16T04:28:58.725Z,17.20
2018-06-16T04:31:29.020Z,17.40
2018-06-16T04:33:58.911Z,17.50
2018-06-16T04:36:27.782Z,17.60
2018-06-16T04:38:58.379Z,17.70
2018-06-16T04:41:27.302Z,17.90
2018-06-16T04:43:56.113Z,18.10
2018-06-16T04:46:25.676Z,18.40
2018-06-16T04:48:55.253Z,18.50
2018-06-16T04:51:24.071Z,18.50
2018-06-16T04:53:53.684Z,18.50
2018-06-16T04:56:22.812Z,18.60
2018-06-16T04:58:52.734Z,18.90
2018-06-16T05:01:21.617Z,18.90
2018-06-16T05:03:50.818Z,18.90
2018-06-16T05:06:19.872Z,18.90
2018-06-16T05:08:52.623Z,19.00
2018-06-16T05:11:21.489Z,19.10
2018-06-16T05:13:50.698Z,19.20
2018-06-16T05:16:20.026Z,19.30
2018-06-16T05:18:50.144Z,19.40
2018-06-16T05:21:20.535Z,19.60
2018-06-16T05:23:50.312Z,20.00
2018-06-16T05:26:19.183Z,20.20
2018-06-16T05:28:48.357Z,20.40
2018-06-16T05:31:17.793Z,20.60
2018-06-16T05:33:47.175Z,20.80
2018-06-16T05:36:17.457Z,20.80
2018-06-16T05:38:46.280Z,20.70
2018-06-16T05:41:16.301Z,20.70
2018-06-16T05:43:47.037Z,20.90
2018-06-16T05:46:20.321Z,21.20
2018-06-16T05:48:49.587Z,21.30
2018-06-16T05:51:21.949Z,21.40
2018-06-16T05:53:50.644Z,21.40
2018-06-16T05:56:20.529Z,21.40
2018-06-16T05:58:49.729Z,21.30
2018-06-16T06:01:18.512Z,21.40
2018-06-16T06:03:47.095Z,21.60
2018-06-16T06:06:16.418Z,21.90
2018-06-16T06:08:47.755Z,21.80
2018-06-16T06:11:17.352Z,21.60
2018-06-16T06:13:47.952Z,21.80
2018-06-16T06:16:17.771Z,22.00
2018-06-16T06:18:47.982Z,22.30
2018-06-16T06:21:16.780Z,22.90
2018-06-16T06:23:46.708Z,23.50
2018-06-16T06:26:16.133Z,23.90
2018-06-16T06:28:45.037Z,24.00
2018-06-16T06:31:14.847Z,23.90
2018-06-16T06:33:48.367Z,24.10
2018-06-16T06:36:18.209Z,24.20
2018-06-16T06:38:48.125Z,24.00
2018-06-16T06:41:17.052Z,23.90
2018-06-16T06:43:46.259Z,24.30
2018-06-16T06:46:16.170Z,24.70
2018-06-16T06:48:47.008Z,25.00
2018-06-16T06:51:17.192Z,25.10
2018-06-16T06:53:51.890Z,25.30
2018-06-16T06:56:23.005Z,25.80
2018-06-16T06:58:51.656Z,26.00
2018-06-16T07:01:20.573Z,26.20
2018-06-16T07:03:50.623Z,26.00
2018-06-16T07:06:20.584Z,25.70
2018-06-16T07:08:51.037Z,25.50
2018-06-16T07:11:19.799Z,25.50
2018-06-16T07:13:49.938Z,25.60
2018-06-16T07:16:18.931Z,26.00
2018-06-16T07:18:48.360Z,26.30
2018-06-16T07:21:17.311Z,26.30
2018-06-16T07:23:46.681Z,26.10
2018-06-16T07:26:15.453Z,25.90
2018-06-16T07:28:45.173Z,26.10
2018-06-16T07:31:14.796Z,26.10
2018-06-16T07:33:44.713Z,26.50
2018-06-16T07:36:16.405Z,26.90
2018-06-16T07:38:45.435Z,27.00
2018-06-16T07:41:14.357Z,26.80
2018-06-16T07:43:44.176Z,27.30
2018-06-16T07:46:12.886Z,26.70
2018-06-16T07:48:42.154Z,26.80
2018-06-16T07:51:11.178Z,26.80
2018-06-16T07:53:40.224Z,27.40
2018-06-16T07:56:09.943Z,28.10
2018-06-16T07:58:40.419Z,29.00
2018-06-16T08:01:09.457Z,28.90
2018-06-16T08:03:38.514Z,28.50
2018-06-16T08:06:07.644Z,28.80
2018-06-16T08:08:37.010Z,28.20
2018-06-16T08:11:07.309Z,28.20
2018-06-16T08:13:37.850Z,28.10
2018-06-16T08:16:07.265Z,28.50
2018-06-16T08:18:36.913Z,28.50
2018-06-16T08:21:06.748Z,29.00
2018-06-16T08:23:36.224Z,29.10
2018-06-16T08:26:05.018Z,28.90
2018-06-16T08:28:34.574Z,29.10
2018-06-16T08:31:03.945Z,29.20
2018-06-16T08:33:34.885Z,28.90
2018-06-16T08:36:03.310Z,28.80
2018-06-16T08:38:32.346Z,28.70
2018-06-16T08:41:01.325Z,28.70
2018-06-16T08:43:31.046Z,28.80
2018-06-16T08:45:59.621Z,28.60
2018-06-16T08:48:28.381Z,29.30
2018-06-16T08:50:57.290Z,29.10
2018-06-16T08:53:27.023Z,28.70
2018-06-16T08:55:55.637Z,28.30
2018-06-16T08:58:24.178Z,28.20
2018-06-16T09:00:53.882Z,27.80
2018-06-16T09:03:23.721Z,28.00
2018-06-16T09:05:53.399Z,28.80
2018-06-16T09:08:22.464Z,29.20
2018-06-16T09:10:51.453Z,29.40
2018-06-16T09:13:20.618Z,29.50
2018-06-16T09:15:49.363Z,29.80
2018-06-16T09:18:18.240Z,30.00
2018-06-16T09:20:47.515Z,29.50
2018-06-16T09:23:17.603Z,28.90
2018-06-16T09:25:46.300Z,29.00
2018-06-16T09:28:14.956Z,29.00
2018-06-16T09:30:43.644Z,28.50
2018-06-16T09:33:13.187Z,28.50
2018-06-16T09:35:41.855Z,28.10
2018-06-16T09:38:11.768Z,28.00
2018-06-16T09:40:40.244Z,28.40
2018-06-16T09:43:08.822Z,28.60
2018-06-16T09:45:37.421Z,28.40
2018-06-16T09:48:06.234Z,28.10
2018-06-16T09:50:35.484Z,28.10
2018-06-16T09:53:04.340Z,28.20
2018-06-16T09:55:32.832Z,28.00
2018-06-16T09:58:02.849Z,27.90
2018-06-16T10:00:35.736Z,27.50
2018-06-16T10:03:06.008Z,27.10
2018-06-16T10:05:35.190Z,27.70
2018-06-16T10:08:04.896Z,28.00
2018-06-16T10:10:34.908Z,27.60
2018-06-16T10:13:03.625Z,27.10
2018-06-16T10:15:32.494Z,27.50
2018-06-16T10:18:02.149Z,27.70
2018-06-16T10:20:31.102Z,28.20
2018-06-16T10:22:59.625Z,28.20
2018-06-16T10:25:29.668Z,28.30
2018-06-16T10:27:58.092Z,28.40
2018-06-16T10:30:27.006Z,28.40
2018-06-16T10:32:55.509Z,28.40
2018-06-16T10:35:25.370Z,27.90
2018-06-16T10:37:53.713Z,27.60
2018-06-16T10:40:22.380Z,28.00
2018-06-16T10:42:51.179Z,28.30
2018-06-16T10:45:19.882Z,28.60
2018-06-16T10:47:48.383Z,28.80
2018-06-16T10:50:17.134Z,28.40
2018-06-16T10:52:46.017Z,28.00
2018-06-16T10:55:14.520Z,28.00
2018-06-16T10:57:43.280Z,28.30
2018-06-16T11:00:12.670Z,28.10
2018-06-16T11:02:41.115Z,27.90
2018-06-16T11:05:09.882Z,28.10
2018-06-16T11:07:38.313Z,28.30
2018-06-16T11:10:08.881Z,28.60
2018-06-16T11:15:07.300Z,29.00
2018-06-16T11:17:36.535Z,29.00
2018-06-16T11:20:06.784Z,29.00
2018-06-16T11:22:35.750Z,28.80
2018-06-16T11:25:04.378Z,28.70
2018-06-16T11:27:34.116Z,28.50
2018-06-16T11:30:04.787Z,28.50
2018-06-16T11:32:34.718Z,28.60
2018-06-16T11:35:03.962Z,28.60
2018-06-16T11:37:33.266Z,28.30
2018-06-16T11:40:01.921Z,28.30
2018-06-16T11:42:30.658Z,28.30
2018-06-16T11:45:06.506Z,28.70
2018-06-16T11:47:36.267Z,28.90
2018-06-16T11:50:04.904Z,29.20
2018-06-16T11:52:33.747Z,29.00
2018-06-16T11:55:04.254Z,28.70
2018-06-16T11:57:32.740Z,28.30
2018-06-16T12:00:02.825Z,28.90
2018-06-16T12:02:31.413Z,29.10
2018-06-16T12:05:01.047Z,28.70
2018-06-16T12:07:30.981Z,28.30
2018-06-16T12:09:59.530Z,28.70
2018-06-16T12:12:28.101Z,28.50
2018-06-16T12:14:56.845Z,28.40
2018-06-16T12:17:25.587Z,28.50
2018-06-16T12:19:54.458Z,28.80
2018-06-16T12:22:23.175Z,28.60
2018-06-16T12:24:51.813Z,28.70
2018-06-16T12:27:20.790Z,29.00
2018-06-16T12:29:49.595Z,28.60
2018-06-16T12:32:18.066Z,28.20
2018-06-16T12:34:46.911Z,27.80
2018-06-16T12:37:15.662Z,27.90
2018-06-16T12:39:52.101Z,27.90
2018-06-16T12:42:20.636Z,28.10
2018-06-16T12:44:51.120Z,28.10
2018-06-16T12:47:19.749Z,28.10
2018-06-16T12:52:18.471Z,27.50
2018-06-16T12:54:48.366Z,27.80
2018-06-16T12:57:16.935Z,27.90
2018-06-16T12:59:46.879Z,27.80
2018-06-16T13:02:15.593Z,28.50
2018-06-16T13:04:45.496Z,28.50
2018-06-16T13:07:15.190Z,28.90
2018-06-16T13:09:43.689Z,28.70
2018-06-16T13:12:12.441Z,28.00
2018-06-16T13:14:42.603Z,27.80
2018-06-16T13:17:12.214Z,28.90
2018-06-16T13:19:40.695Z,30.10
2018-06-16T13:22:11.174Z,30.70
2018-06-16T13:24:39.652Z,30.20
2018-06-16T13:27:08.840Z,29.60
2018-06-16T13:29:37.600Z,29.60
2018-06-16T13:32:06.689Z,29.70
2018-06-16T13:34:35.669Z,29.60
2018-06-16T13:37:04.217Z,29.30
2018-06-16T13:39:33.358Z,29.60
2018-06-16T13:42:01.974Z,29.80
2018-06-16T13:44:30.529Z,29.80
2018-06-16T13:46:58.947Z,29.60
2018-06-16T13:49:28.037Z,29.30
2018-06-16T13:54:44.365Z,28.90
2018-06-16T13:57:13.010Z,29.30
2018-06-16T13:59:41.649Z,29.00
2018-06-16T14:02:10.098Z,28.00
2018-06-16T14:04:38.914Z,27.20
2018-06-16T14:07:07.592Z,26.60
2018-06-16T14:09:36.123Z,26.40
2018-06-16T14:12:04.805Z,26.20
2018-06-16T14:14:33.440Z,26.20
2018-06-16T14:17:02.190Z,26.40
2018-06-16T14:19:30.725Z,26.40
2018-06-16T14:21:59.159Z,26.50
2018-06-16T14:24:27.972Z,26.50
2018-06-16T14:29:27.611Z,26.00
2018-06-16T14:31:56.765Z,25.60
2018-06-16T14:34:25.225Z,25.70
2018-06-16T14:36:53.770Z,26.10
2018-06-16T14:39:22.347Z,26.10
2018-06-16T14:44:20.078Z,26.20
2018-06-16T14:46:48.644Z,26.20
2018-06-16T14:49:17.156Z,26.40
2018-06-16T14:51:45.595Z,26.50
2018-06-16T14:54:14.110Z,26.10
2018-06-16T14:56:42.603Z,26.30
2018-06-16T14:59:11.259Z,26.20
2018-06-16T15:01:39.734Z,26.30
2018-06-16T15:04:08.228Z,26.30
2018-06-16T15:06:36.832Z,26.40
2018-06-16T15:09:08.219Z,26.50
2018-06-16T15:11:37.141Z,26.20
2018-06-16T15:14:05.914Z,26.10
2018-06-16T15:19:02.995Z,26.10
2018-06-16T15:21:31.920Z,26.30
2018-06-16T15:24:00.367Z,26.20
2018-06-16T15:26:28.904Z,26.20
2018-06-16T15:28:57.327Z,26.20
2018-06-16T15:31:25.922Z,26.30
2018-06-16T15:33:54.449Z,26.30
2018-06-16T15:36:22.913Z,26.10
2018-06-16T15:38:51.486Z,26.10
2018-06-16T15:41:20.318Z,26.00
2018-06-16T15:43:48.757Z,26.00
2018-06-16T15:46:17.694Z,25.90
2018-06-16T15:48:46.329Z,25.80
2018-06-16T15:51:14.690Z,25.80
2018-06-16T15:53:43.225Z,25.70
2018-06-16T15:56:12.594Z,25.50
2018-06-16T15:58:41.381Z,25.50
2018-06-16T16:01:10.124Z,25.80
2018-06-16T16:03:38.807Z,25.90
2018-06-16T16:06:07.356Z,26.10
2018-06-16T16:08:37.103Z,26.20
2018-06-16T16:11:05.854Z,26.10
2018-06-16T16:13:34.986Z,26.00
2018-06-16T16:16:03.654Z,26.00
2018-06-16T16:18:32.668Z,26.10
2018-06-16T16:21:01.357Z,26.20
2018-06-16T16:23:29.801Z,26.20
2018-06-16T16:25:58.918Z,26.30
2018-06-16T16:28:28.377Z,26.30
2018-06-16T16:30:56.950Z,26.00
2018-06-16T16:33:25.428Z,25.80
2018-06-16T16:35:54.128Z,25.90
2018-06-16T16:38:23.711Z,25.80
2018-06-16T16:40:52.228Z,25.80
2018-06-16T16:43:20.912Z,25.80
2018-06-16T16:45:49.407Z,25.90
2018-06-16T16:48:17.931Z,25.90
2018-06-16T16:50:48.187Z,25.90
2018-06-16T16:53:16.919Z,26.10
2018-06-16T16:55:45.767Z,26.10
2018-06-16T16:58:14.382Z,26.10
2018-06-16T17:00:43.492Z,26.20
2018-06-16T17:03:12.095Z,26.20
2018-06-16T17:05:40.709Z,26.10
2018-06-16T17:08:09.392Z,26.20
2018-06-16T17:10:38.421Z,26.40
2018-06-16T17:13:07.382Z,26.40
2018-06-16T17:15:35.850Z,26.50
2018-06-16T17:18:04.729Z,26.50
2018-06-16T17:20:33.250Z,26.20
2018-06-16T17:23:02.536Z,25.90
2018-06-16T17:25:31.095Z,25.80
2018-06-16T17:27:59.569Z,25.80
2018-06-16T17:30:28.499Z,25.80
2018-06-16T17:32:56.937Z,25.60
2018-06-16T17:35:25.688Z,25.60
2018-06-16T17:37:55.196Z,25.50
2018-06-16T17:40:24.134Z,25.40
2018-06-16T17:42:52.642Z,25.40
2018-06-16T17:45:21.156Z,25.20
2018-06-16T17:47:49.619Z,25.10
2018-06-16T17:50:18.289Z,25.10
2018-06-16T17:52:47.162Z,25.00
2018-06-16T17:55:15.746Z,24.80
2018-06-16T17:57:44.455Z,24.70
2018-06-16T18:00:13.061Z,24.60
2018-06-16T18:02:41.706Z,24.40
2018-06-16T18:05:10.370Z,24.30
2018-06-16T18:07:39.613Z,24.20
2018-06-16T18:10:10.793Z,24.10
2018-06-16T18:12:40.600Z,23.90
2018-06-16T18:15:09.984Z,23.10
2018-06-16T18:17:39.200Z,22.00
2018-06-16T18:20:08.007Z,21.00
2018-06-16T18:22:36.551Z,20.40
2018-06-16T18:25:05.256Z,20.00
2018-06-16T18:27:34.159Z,19.80
2018-06-16T18:30:03.203Z,19.60
2018-06-16T18:32:31.718Z,19.40
2018-06-16T18:35:01.510Z,19.20
2018-06-16T18:37:29.886Z,19.10
2018-06-16T18:39:58.609Z,19.00
2018-06-16T18:42:27.194Z,19.00
2018-06-16T18:44:55.762Z,19.00
2018-06-16T18:47:24.162Z,19.00
2018-06-16T18:49:53.112Z,18.90
2018-06-16T18:52:21.620Z,18.90
2018-06-16T18:54:50.514Z,18.80
2018-06-16T18:57:18.912Z,18.80
2018-06-16T18:59:47.405Z,18.70
2018-06-16T19:02:16.490Z,18.60
2018-06-16T19:07:14.327Z,18.60
2018-06-16T19:09:42.940Z,18.50
2018-06-16T19:12:11.344Z,18.50
2018-06-16T19:14:39.737Z,18.50
2018-06-16T19:17:08.551Z,18.40
2018-06-16T19:19:37.317Z,18.40
2018-06-16T19:22:05.745Z,18.40
2018-06-16T19:24:34.229Z,18.40
2018-06-16T19:27:02.877Z,18.40
2018-06-16T19:29:31.437Z,18.40
2018-06-16T19:32:00.027Z,18.30
2018-06-16T19:34:28.444Z,18.30
2018-06-16T19:39:25.599Z,18.30
2018-06-16T19:41:54.323Z,18.20
2018-06-16T19:44:22.848Z,18.20
2018-06-16T19:46:52.632Z,18.20
2018-06-16T19:49:21.116Z,18.20
2018-06-16T19:51:50.357Z,18.20
2018-06-16T19:54:19.431Z,18.30
2018-06-16T19:56:48.637Z,18.20
2018-06-16T19:59:17.091Z,18.20
2018-06-16T20:01:46.154Z,18.20
2018-06-16T20:04:14.667Z,18.20
2018-06-16T20:06:43.299Z,18.20
2018-06-16T20:09:11.634Z,18.20
2018-06-16T20:11:41.159Z,18.20
2018-06-16T20:14:09.671Z,18.20
2018-06-16T20:16:38.552Z,18.20
2018-06-16T20:19:07.250Z,18.20
2018-06-16T20:21:37.020Z,18.20
2018-06-16T20:24:06.265Z,18.20
2018-06-16T20:26:34.946Z,18.20
2018-06-16T20:29:04.552Z,18.10
2018-06-16T20:31:33.190Z,18.00
2018-06-16T20:34:02.788Z,18.00
2018-06-16T20:36:31.305Z,17.90
2018-06-16T20:39:00.076Z,17.80
2018-06-16T20:41:28.564Z,17.80
2018-06-16T20:44:00.444Z,17.70
2018-06-16T20:51:27.670Z,17.70
2018-06-16T20:53:57.227Z,17.60
2018-06-16T20:56:26.474Z,17.60
2018-06-16T20:58:55.825Z,17.60
2018-06-16T21:01:24.860Z,17.50
2018-06-16T21:03:54.701Z,17.50
2018-06-16T21:06:23.729Z,17.50
2018-06-16T21:08:52.705Z,17.50
2018-06-16T21:11:21.643Z,17.40
2018-06-16T21:13:50.398Z,17.40
2018-06-16T21:16:19.124Z,17.40
2018-06-16T21:18:47.972Z,17.40
2018-06-16T21:23:44.957Z,17.30
2018-06-16T21:26:13.924Z,17.30
2018-06-16T21:28:42.467Z,17.30
2018-06-16T21:31:11.557Z,17.20
2018-06-16T21:33:40.357Z,17.20
2018-06-16T21:36:09.029Z,17.20
2018-06-16T21:38:38.133Z,17.10
2018-06-16T21:41:07.047Z,17.10
2018-06-16T21:43:35.631Z,17.10
2018-06-16T21:46:04.833Z,17.00
2018-06-16T21:48:33.526Z,16.90
2018-06-16T21:51:05.789Z,16.80
2018-06-16T21:53:34.687Z,16.80
2018-06-16T21:56:05.165Z,16.70
2018-06-16T21:58:34.218Z,16.60
2018-06-16T22:01:04.393Z,16.60
2018-06-16T22:03:33.025Z,16.50
2018-06-16T22:06:01.962Z,16.40
2018-06-16T22:08:32.259Z,16.40
2018-06-16T22:11:02.350Z,16.40
2018-06-16T22:15:59.494Z,16.30
2018-06-16T22:18:28.447Z,16.30
2018-06-16T22:20:57.568Z,16.20
2018-06-16T22:23:26.279Z,16.20
2018-06-16T22:25:54.803Z,16.20
2018-06-16T22:28:23.758Z,16.10
2018-06-16T22:30:52.390Z,16.10
2018-06-16T22:33:20.994Z,16.00
2018-06-16T22:35:49.455Z,16.00
2018-06-16T22:38:18.097Z,15.90
2018-06-16T22:40:48.273Z,15.90
2018-06-16T22:43:16.926Z,15.80
2018-06-16T22:45:45.333Z,15.90
2018-06-16T22:48:15.143Z,15.90
2018-06-16T22:53:11.990Z,15.80
2018-06-16T22:55:40.641Z,15.70
2018-06-16T22:58:09.155Z,15.70
2018-06-16T23:00:37.640Z,15.70
2018-06-16T23:03:07.410Z,15.70
2018-06-16T23:05:36.261Z,15.70
2018-06-16T23:08:04.884Z,15.80
2018-06-16T23:13:02.005Z,15.80
2018-06-16T23:15:30.836Z,15.80
2018-06-16T23:17:59.652Z,15.80
2018-06-16T23:20:28.706Z,15.80
2018-06-16T23:22:57.230Z,15.80
2018-06-16T23:25:25.902Z,15.80
2018-06-16T23:27:54.615Z,15.80
2018-06-16T23:30:23.852Z,15.80
2018-06-16T23:32:52.404Z,15.80
2018-06-16T23:35:20.978Z,15.90
2018-06-16T23:37:50.146Z,16.00
2018-06-16T23:40:18.656Z,16.00
2018-06-16T23:42:48.615Z,16.10
2018-06-16T23:45:18.026Z,16.10
2018-06-16T23:47:48.482Z,16.20
2018-06-16T23:50:17.743Z,16.20
2018-06-16T23:52:46.452Z,16.20
2018-06-16T23:55:15.397Z,16.20
2018-06-16T23:57:44.047Z,16.20
